createdAt,value
2022-11-14T00:00:19.644Z,100864.69
2022-11-14T00:02:49.331Z,100862.19
2022-11-14T00:05:19.401Z,100859.16
2022-11-14T00:07:49.106Z,100847.56
2022-11-14T00:10:18.988Z,100848.56
2022-11-14T00:12:49.246Z,100847.03
2022-11-14T00:15:20.862Z,100844.16
2022-11-14T00:17:50.543Z,100839.16
2022-11-14T00:20:20.250Z,100841.81
2022-11-14T00:22:49.868Z,100842.72
2022-11-14T00:25:19.402Z,100836.09
2022-11-14T00:27:48.880Z,100831.00
2022-11-14T00:30:18.501Z,100832.72
2022-11-14T00:32:49.381Z,100827.91
2022-11-14T00:35:18.844Z,100823.75
2022-11-14T00:37:48.324Z,100826.03
2022-11-14T00:40:18.048Z,100828.91
2022-11-14T00:42:47.574Z,100826.13
2022-11-14T00:45:17.174Z,100825.28
2022-11-14T00:47:46.775Z,100828.28
2022-11-14T00:50:18.429Z,100824.41
2022-11-14T00:52:48.041Z,100820.06
2022-11-14T00:55:17.581Z,100812.25
2022-11-14T00:57:47.205Z,100813.69
2022-11-14T01:00:16.825Z,100812.19
2022-11-14T01:02:46.319Z,100817.13
2022-11-14T01:05:15.869Z,100813.09
2022-11-14T01:07:46.794Z,100815.47
2022-11-14T01:10:16.825Z,100814.63
2022-11-14T01:12:46.926Z,100819.84
2022-11-14T01:15:16.894Z,100814.97
2022-11-14T01:17:46.432Z,100811.13
2022-11-14T01:20:16.346Z,100815.75
2022-11-14T01:22:47.502Z,100806.66
2022-11-14T01:25:17.049Z,100806.66
2022-11-14T01:27:46.611Z,100803.22
2022-11-14T01:30:16.234Z,100800.94
2022-11-14T01:32:45.768Z,100798.50
2022-11-14T01:35:15.282Z,100800.63
2022-11-14T01:37:44.781Z,100793.75
2022-11-14T01:40:15.754Z,100792.91
2022-11-14T01:43:00.165Z,100796.47
2022-11-14T01:45:48.312Z,100791.56
2022-11-14T01:48:21.542Z,100786.63
2022-11-14T01:50:54.984Z,100789.91
2022-11-14T01:53:26.466Z,100776.19
2022-11-14T01:55:59.283Z,100786.34
2022-11-14T01:58:29.276Z,100784.75
2022-11-14T02:00:59.101Z,100776.03
2022-11-14T02:03:28.931Z,100776.69
2022-11-14T02:05:59.347Z,100784.75
2022-11-14T02:08:29.219Z,100782.56
2022-11-14T02:11:00.325Z,100784.97
2022-11-14T02:13:30.432Z,100788.38
2022-11-14T02:16:00.429Z,100786.94
2022-11-14T02:18:30.412Z,100792.47
2022-11-14T02:21:01.568Z,100788.22
2022-11-14T02:23:32.088Z,100790.19
2022-11-14T02:26:01.600Z,100782.47
2022-11-14T02:28:31.401Z,100786.22
2022-11-14T02:31:01.105Z,100780.72
2022-11-14T02:33:30.670Z,100783.44
2022-11-14T02:36:01.510Z,100782.13
2022-11-14T02:38:31.764Z,100780.16
2022-11-14T02:41:01.557Z,100777.44
2022-11-14T02:43:31.123Z,100778.91
2022-11-14T02:46:05.393Z,100776.81
2022-11-14T02:48:35.327Z,100787.09
2022-11-14T02:51:06.589Z,100778.25
2022-11-14T02:53:36.138Z,100776.81
2022-11-14T02:56:06.235Z,100776.59
2022-11-14T02:58:35.662Z,100776.25
2022-11-14T03:01:20.205Z,100773.78
2022-11-14T03:03:50.628Z,100774.97
2022-11-14T03:06:21.588Z,100769.25
2022-11-14T03:08:51.088Z,100756.19
2022-11-14T03:11:20.618Z,100763.50
2022-11-14T03:13:50.646Z,100769.31
2022-11-14T03:16:20.925Z,100775.78
2022-11-14T03:18:50.405Z,100777.38
2022-11-14T03:21:22.328Z,100781.66
2022-11-14T03:23:52.089Z,100773.94
2022-11-14T03:26:21.613Z,100777.38
2022-11-14T03:28:51.338Z,100777.78
2022-11-14T03:31:20.861Z,100779.88
2022-11-14T03:33:50.390Z,100780.41
2022-11-14T03:36:21.550Z,100782.66
2022-11-14T03:38:51.321Z,100776.31
2022-11-14T03:41:20.882Z,100777.66
2022-11-14T03:43:50.444Z,100773.28
2022-11-14T03:46:20.798Z,100774.72
2022-11-14T03:48:50.275Z,100769.22
2022-11-14T03:51:21.350Z,100775.69
2022-11-14T03:53:50.956Z,100769.66
2022-11-14T03:56:20.517Z,100773.63
2022-11-14T03:58:50.058Z,100773.28
2022-11-14T04:01:19.816Z,100778.38
2022-11-14T04:03:49.566Z,100769.59
2022-11-14T04:06:19.138Z,100766.66
2022-11-14T04:08:50.021Z,100774.44
2022-11-14T04:11:20.221Z,100772.81
2022-11-14T04:13:50.079Z,100778.47
2022-11-14T04:16:20.239Z,100779.09
2022-11-14T04:18:49.860Z,100775.53
2022-11-14T04:21:19.481Z,100781.94
2022-11-14T04:23:50.787Z,100774.00
2022-11-14T04:26:20.910Z,100776.59
2022-11-14T04:28:50.619Z,100771.94
2022-11-14T04:31:20.176Z,100768.78
2022-11-14T04:33:49.790Z,100771.16
2022-11-14T04:36:19.328Z,100772.63
2022-11-14T04:38:50.249Z,100770.47
2022-11-14T04:41:19.813Z,100773.84
2022-11-14T04:43:50.911Z,100779.22
2022-11-14T04:46:20.794Z,100771.75
2022-11-14T04:48:50.281Z,100771.22
2022-11-14T04:51:19.837Z,100782.50
2022-11-14T04:53:50.804Z,100783.53
2022-11-14T04:56:23.143Z,100781.81
2022-11-14T04:58:52.636Z,100786.44
2022-11-14T05:01:22.315Z,100788.94
2022-11-14T05:03:51.911Z,100796.09
2022-11-14T05:06:21.414Z,100798.47
2022-11-14T05:08:52.355Z,100798.53
2022-11-14T05:11:27.979Z,100794.72
2022-11-14T05:13:59.126Z,100798.78
2022-11-14T05:16:29.052Z,100794.97
2022-11-14T05:18:58.555Z,100802.09
2022-11-14T05:21:28.024Z,100800.19
2022-11-14T05:23:58.994Z,100800.03
2022-11-14T05:26:29.022Z,100801.50
2022-11-14T05:28:59.249Z,100803.56
2022-11-14T05:31:28.785Z,100797.13
2022-11-14T05:33:58.304Z,100800.09
2022-11-14T05:36:28.093Z,100807.19
2022-11-14T05:38:59.008Z,100810.44
2022-11-14T05:41:28.674Z,100813.16
2022-11-14T05:43:58.230Z,100808.22
2022-11-14T05:46:27.819Z,100814.06
2022-11-14T05:48:57.381Z,100815.66
2022-11-14T05:51:27.183Z,100814.00
2022-11-14T05:53:56.845Z,100812.00
2022-11-14T05:56:27.786Z,100808.84
2022-11-14T05:58:57.275Z,100808.19
2022-11-14T06:01:27.939Z,100817.63
2022-11-14T06:03:57.462Z,100817.63
2022-11-14T06:06:27.026Z,100820.25
2022-11-14T06:08:56.557Z,100818.84
2022-11-14T06:11:27.478Z,100809.47
2022-11-14T06:13:57.368Z,100812.34
2022-11-14T06:16:27.066Z,100810.41
2022-11-14T06:18:57.298Z,100809.19
2022-11-14T06:21:27.241Z,100806.31
2022-11-14T06:23:56.841Z,100814.84
2022-11-14T06:26:30.284Z,100812.78
2022-11-14T06:29:01.078Z,100807.13
2022-11-14T06:31:30.661Z,100807.47
2022-11-14T06:34:00.325Z,100816.88
2022-11-14T06:36:30.676Z,100811.50
2022-11-14T06:39:00.302Z,100811.94
2022-11-14T06:41:31.482Z,100811.28
2022-11-14T06:44:01.198Z,100821.94
2022-11-14T06:46:30.951Z,100810.03
2022-11-14T06:49:00.561Z,100820.41
2022-11-14T06:51:30.365Z,100813.41
2022-11-14T06:54:00.063Z,100815.91
2022-11-14T06:56:31.026Z,100805.44
2022-11-14T06:59:00.590Z,100804.31
2022-11-14T07:01:30.148Z,100806.63
2022-11-14T07:04:00.680Z,100800.22
2022-11-14T07:06:31.334Z,100804.56
2022-11-14T07:09:01.053Z,100796.28
2022-11-14T07:11:33.212Z,100796.06
2022-11-14T07:14:03.860Z,100797.84
2022-11-14T07:16:34.997Z,100800.66
2022-11-14T07:19:07.217Z,100791.50
2022-11-14T07:21:37.457Z,100796.38
2022-11-14T07:24:07.566Z,100792.66
2022-11-14T07:26:38.816Z,100789.13
2022-11-14T07:29:08.589Z,100782.91
2022-11-14T07:31:38.175Z,100776.16
2022-11-14T07:34:07.754Z,100782.47
2022-11-14T07:36:37.559Z,100778.34
2022-11-14T07:39:07.083Z,100780.00
2022-11-14T07:41:38.012Z,100786.50
2022-11-14T07:44:07.556Z,100783.25
2022-11-14T07:46:37.584Z,100787.50
2022-11-14T07:49:07.263Z,100781.06
2022-11-14T07:51:37.559Z,100787.44
2022-11-14T07:54:07.150Z,100781.50
2022-11-14T07:56:38.380Z,100782.91
2022-11-14T07:59:08.002Z,100784.88
2022-11-14T08:01:37.763Z,100786.94
2022-11-14T08:04:07.537Z,100790.06
2022-11-14T08:06:37.048Z,100795.91
2022-11-14T08:09:06.609Z,100793.44
2022-11-14T08:11:50.250Z,100794.69
2022-11-14T08:14:20.295Z,100796.00
2022-11-14T08:16:51.385Z,100798.06
2022-11-14T08:19:20.898Z,100800.91
2022-11-14T08:21:50.456Z,100787.19
2022-11-14T08:24:20.037Z,100792.09
2022-11-14T08:26:50.941Z,100794.50
2022-11-14T08:29:21.162Z,100794.22
2022-11-14T08:31:52.618Z,100793.69
2022-11-14T08:34:26.138Z,100787.97
2022-11-14T08:36:56.759Z,100790.09
2022-11-14T08:39:26.440Z,100780.13
2022-11-14T08:41:57.381Z,100791.38
2022-11-14T08:44:26.881Z,100789.22
2022-11-14T08:46:57.900Z,100785.41
2022-11-14T08:49:27.482Z,100782.59
2022-11-14T08:51:57.666Z,100782.16
2022-11-14T08:54:27.248Z,100771.50
2022-11-14T08:56:58.302Z,100781.22
2022-11-14T08:59:28.084Z,100772.34
2022-11-14T09:01:58.055Z,100782.09
2022-11-14T09:04:27.945Z,100772.03
2022-11-14T09:06:58.946Z,100772.53
2022-11-14T09:09:28.714Z,100769.69
2022-11-14T09:12:00.639Z,100770.50
2022-11-14T09:14:31.018Z,100764.72
2022-11-14T09:17:05.681Z,100767.84
2022-11-14T09:19:36.265Z,100762.88
2022-11-14T09:22:06.069Z,100755.22
2022-11-14T09:24:35.741Z,100746.66
2022-11-14T09:27:06.871Z,100741.06
2022-11-14T09:29:36.641Z,100742.56
2022-11-14T09:32:06.337Z,100741.50
2022-11-14T09:34:37.278Z,100743.13
2022-11-14T09:37:06.862Z,100736.69
2022-11-14T09:39:39.647Z,100735.63
2022-11-14T09:42:24.600Z,100731.72
2022-11-14T09:44:56.840Z,100731.41
2022-11-14T09:47:29.455Z,100725.69
2022-11-14T09:50:06.054Z,100711.97
2022-11-14T09:52:37.720Z,100714.63
2022-11-14T09:55:12.934Z,100703.47
2022-11-14T09:57:45.269Z,100714.50
2022-11-14T10:00:16.301Z,100707.06
2022-11-14T10:02:54.364Z,100705.03
2022-11-14T10:05:28.492Z,100695.59
2022-11-14T10:08:08.422Z,100687.72
2022-11-14T10:10:49.252Z,100691.50
2022-11-14T10:13:28.257Z,100679.66
2022-11-14T10:16:03.145Z,100680.00
2022-11-14T10:18:42.626Z,100674.84
2022-11-14T10:21:31.667Z,100679.69
2022-11-14T10:24:06.591Z,100669.66
2022-11-14T10:26:38.742Z,100671.78
2022-11-14T10:29:20.346Z,100668.06
2022-11-14T10:31:55.103Z,100662.09
2022-11-14T10:34:28.061Z,100657.59
2022-11-14T10:37:03.204Z,100648.44
2022-11-14T10:39:36.291Z,100646.31
2022-11-14T10:42:12.649Z,100645.78
2022-11-14T10:44:50.673Z,100644.63
2022-11-14T10:47:22.602Z,100638.84
2022-11-14T10:49:55.240Z,100644.91
2022-11-14T10:52:34.786Z,100626.88
2022-11-14T10:55:07.733Z,100630.06
2022-11-14T10:57:37.276Z,100626.44
2022-11-14T11:00:12.410Z,100613.16
2022-11-14T11:02:49.419Z,100616.34
2022-11-14T11:05:20.417Z,100616.47
2022-11-14T11:08:28.585Z,100614.84
2022-11-14T11:11:16.650Z,100607.59
2022-11-14T11:13:51.714Z,100613.66
2022-11-14T11:16:24.609Z,100613.56
2022-11-14T11:18:54.217Z,100611.88
2022-11-14T11:21:24.469Z,100599.25
2022-11-14T11:23:55.460Z,100599.13
2022-11-14T11:26:26.539Z,100593.06
2022-11-14T11:29:03.672Z,100595.75
2022-11-14T11:31:48.204Z,100592.09
2022-11-14T11:34:26.484Z,100585.44
2022-11-14T11:36:58.856Z,100581.94
2022-11-14T11:39:30.484Z,100579.16
2022-11-14T11:42:11.062Z,100589.59
2022-11-14T11:44:44.638Z,100583.31
2022-11-14T11:47:15.593Z,100581.09
2022-11-14T11:49:53.519Z,100577.66
2022-11-14T11:52:28.956Z,100571.59
2022-11-14T11:55:02.234Z,100564.66
2022-11-14T11:57:34.829Z,100566.97
2022-11-14T12:00:07.284Z,100558.13
2022-11-14T12:02:42.284Z,100566.88
2022-11-14T12:05:18.415Z,100558.97
2022-11-14T12:07:52.675Z,100561.63
2022-11-14T12:10:24.004Z,100559.72
2022-11-14T12:13:09.039Z,100559.25
2022-11-14T12:15:44.818Z,100562.66
2022-11-14T12:18:21.938Z,100553.47
2022-11-14T12:21:11.255Z,100561.34
2022-11-14T12:24:07.819Z,100549.41
2022-11-14T12:26:45.961Z,100547.94
2022-11-14T12:29:25.552Z,100556.06
2022-11-14T12:31:58.910Z,100555.22
2022-11-14T12:34:32.003Z,100552.03
2022-11-14T12:37:08.844Z,100553.28
2022-11-14T12:39:38.592Z,100549.66
2022-11-14T12:42:11.083Z,100542.22
2022-11-14T12:44:41.415Z,100540.28
2022-11-14T12:47:15.725Z,100536.88
2022-11-14T12:49:59.075Z,100535.88
2022-11-14T12:52:45.918Z,100536.25
2022-11-14T12:55:34.329Z,100528.81
2022-11-14T12:58:08.069Z,100528.91
2022-11-14T13:01:00.070Z,100532.19
2022-11-14T13:03:41.575Z,100527.50
2022-11-14T13:06:12.706Z,100530.28
2022-11-14T13:09:08.414Z,100525.56
2022-11-14T13:11:59.197Z,100525.84
2022-11-14T13:14:47.487Z,100528.94
2022-11-14T13:17:42.734Z,100521.88
2022-11-14T13:20:45.192Z,100515.28
2022-11-14T13:23:33.804Z,100517.66
2022-11-14T13:26:27.274Z,100514.16
2022-11-14T13:28:58.642Z,100513.31
2022-11-14T13:31:44.816Z,100515.22
2022-11-14T13:34:32.776Z,100520.56
2022-11-14T13:37:07.506Z,100517.16
2022-11-14T13:39:43.851Z,100515.56
2022-11-14T13:42:21.263Z,100511.81
2022-11-14T13:45:08.486Z,100510.63
2022-11-14T13:47:56.652Z,100514.25
2022-11-14T13:50:27.693Z,100507.69
2022-11-14T13:52:57.763Z,100509.59
2022-11-14T13:55:33.442Z,100502.78
2022-11-14T13:58:10.072Z,100507.50
2022-11-14T14:00:51.720Z,100508.97
2022-11-14T14:03:32.810Z,100505.78
2022-11-14T14:06:10.619Z,100506.13
2022-11-14T14:08:53.304Z,100509.84
2022-11-14T14:11:30.781Z,100505.75
2022-11-14T14:14:04.170Z,100505.09
2022-11-14T14:16:37.782Z,100507.97
2022-11-14T14:19:14.144Z,100510.13
2022-11-14T14:21:46.789Z,100503.09
2022-11-14T14:24:26.397Z,100502.22
2022-11-14T14:27:01.787Z,100500.63
2022-11-14T14:29:38.836Z,100499.13
2022-11-14T14:32:12.734Z,100498.59
2022-11-14T14:34:43.759Z,100498.84
2022-11-14T14:37:18.837Z,100498.31
2022-11-14T14:39:58.780Z,100495.84
2022-11-14T14:42:33.749Z,100497.91
2022-11-14T14:45:05.438Z,100490.97
2022-11-14T14:47:37.732Z,100496.50
2022-11-14T14:50:15.206Z,100485.13
2022-11-14T14:52:47.025Z,100487.91
2022-11-14T14:55:21.312Z,100479.25
2022-11-14T14:57:51.002Z,100488.88
2022-11-14T15:00:22.164Z,100480.13
2022-11-14T15:02:51.693Z,100483.09
2022-11-14T15:05:26.560Z,100480.75
2022-11-14T15:07:57.429Z,100481.09
2022-11-14T15:10:29.672Z,100481.53
2022-11-14T15:13:01.061Z,100478.09
2022-11-14T15:15:31.829Z,100481.09
2022-11-14T15:18:03.710Z,100479.47
2022-11-14T15:20:34.671Z,100479.47
2022-11-14T15:23:04.976Z,100477.13
2022-11-14T15:25:34.765Z,100482.56
2022-11-14T15:28:05.944Z,100483.63
2022-11-14T15:30:39.211Z,100481.28
2022-11-14T15:33:23.602Z,100478.94
2022-11-14T15:36:07.811Z,100477.25
2022-11-14T15:38:44.080Z,100478.63
2022-11-14T15:41:18.878Z,100481.50
2022-11-14T15:43:50.477Z,100477.97
2022-11-14T15:46:40.852Z,100483.91
2022-11-14T15:49:11.569Z,100480.41
2022-11-14T15:51:44.781Z,100485.41
2022-11-14T15:54:24.815Z,100483.59
2022-11-14T15:56:55.202Z,100490.72
2022-11-14T15:59:25.328Z,100478.50
2022-11-14T16:01:57.505Z,100480.69
2022-11-14T16:04:30.001Z,100480.91
2022-11-14T16:07:01.129Z,100486.22
2022-11-14T16:09:30.740Z,100489.94
2022-11-14T16:12:00.952Z,100487.50
2022-11-14T16:14:30.866Z,100486.66
2022-11-14T16:17:01.440Z,100486.66
2022-11-14T16:19:31.092Z,100488.44
2022-11-14T16:22:03.107Z,100486.84
2022-11-14T16:24:34.362Z,100480.75
2022-11-14T16:27:04.349Z,100486.09
2022-11-14T16:29:33.892Z,100488.09
2022-11-14T16:32:03.724Z,100484.03
2022-11-14T16:34:33.462Z,100484.16
2022-11-14T16:37:04.695Z,100491.75
2022-11-14T16:39:34.336Z,100497.19
2022-11-14T16:42:04.104Z,100488.66
2022-11-14T16:44:39.351Z,100489.25
2022-11-14T16:47:13.882Z,100492.47
2022-11-14T16:49:43.727Z,100494.16
2022-11-14T16:52:17.084Z,100493.03
2022-11-14T16:54:47.099Z,100496.38
2022-11-14T16:57:16.615Z,100490.47
2022-11-14T16:59:46.332Z,100495.16
2022-11-14T17:02:16.705Z,100492.75
2022-11-14T17:04:46.547Z,100492.63
2022-11-14T17:07:21.737Z,100491.53
2022-11-14T17:09:52.452Z,100491.00
2022-11-14T17:12:22.738Z,100491.19
2022-11-14T17:14:53.071Z,100487.56
2022-11-14T17:17:23.282Z,100487.75
2022-11-14T17:19:53.019Z,100490.34
2022-11-14T17:22:24.659Z,100489.69
2022-11-14T17:24:54.251Z,100489.88
2022-11-14T17:27:25.285Z,100494.63
2022-11-14T17:29:54.838Z,100483.25
2022-11-14T17:32:24.535Z,100495.94
2022-11-14T17:34:54.129Z,100491.97
2022-11-14T17:37:27.125Z,100490.47
2022-11-14T17:39:57.003Z,100493.97
2022-11-14T17:42:26.504Z,100485.50
2022-11-14T17:44:58.159Z,100485.78
2022-11-14T17:47:27.794Z,100496.31
2022-11-14T17:49:57.458Z,100488.63
2022-11-14T17:52:28.402Z,100497.09
2022-11-14T17:54:57.897Z,100487.13
2022-11-14T17:57:27.441Z,100481.59
2022-11-14T17:59:57.042Z,100484.53
2022-11-14T18:02:26.536Z,100489.09
2022-11-14T18:04:56.028Z,100490.59
2022-11-14T18:07:25.668Z,100476.06
2022-11-14T18:09:56.622Z,100478.53
2022-11-14T18:12:26.255Z,100487.94
2022-11-14T18:14:55.713Z,100485.06
2022-11-14T18:17:25.210Z,100476.31
2022-11-14T18:20:00.210Z,100485.91
2022-11-14T18:22:29.966Z,100481.06
2022-11-14T18:25:07.488Z,100485.78
2022-11-14T18:27:37.553Z,100495.44
2022-11-14T18:30:34.692Z,100482.69
2022-11-14T18:32:57.247Z,100485.72
2022-11-14T18:35:26.786Z,100492.00
2022-11-14T18:37:56.461Z,100490.19
2022-11-14T18:40:27.650Z,100483.59
2022-11-14T18:42:57.426Z,100488.16
2022-11-14T18:45:27.124Z,100482.69
2022-11-14T18:47:56.646Z,100483.00
2022-11-14T18:50:26.322Z,100486.53
2022-11-14T18:52:55.959Z,100488.06
2022-11-14T18:55:25.521Z,100482.94
2022-11-14T18:57:56.389Z,100477.88
2022-11-14T19:00:25.870Z,100481.91
2022-11-14T19:02:55.487Z,100482.53
2022-11-14T19:05:25.246Z,100479.88
2022-11-14T19:07:54.924Z,100489.66
2022-11-14T19:10:24.444Z,100488.69
2022-11-14T19:12:56.007Z,100493.91
2022-11-14T19:15:26.058Z,100493.91
2022-11-14T19:17:55.658Z,100491.25
2022-11-14T19:20:25.190Z,100493.41
2022-11-14T19:22:54.760Z,100498.81
2022-11-14T19:25:24.375Z,100489.47
2022-11-14T19:27:53.957Z,100492.72
2022-11-14T19:30:24.922Z,100494.25
2022-11-14T19:32:54.681Z,100495.88
2022-11-14T19:35:24.205Z,100496.38
2022-11-14T19:37:53.736Z,100494.34
2022-11-14T19:40:23.398Z,100504.59
2022-11-14T19:42:54.113Z,100500.75
2022-11-14T19:45:24.972Z,100506.56
2022-11-14T19:47:54.494Z,100503.31
2022-11-14T19:50:25.785Z,100499.44
2022-11-14T19:52:55.393Z,100497.50
2022-11-14T19:55:24.927Z,100495.53
2022-11-14T19:57:54.488Z,100489.78
2022-11-14T20:00:25.995Z,100488.94
2022-11-14T20:02:55.546Z,100492.47
2022-11-14T20:05:25.544Z,100487.44
2022-11-14T20:07:55.305Z,100486.28
2022-11-14T20:10:25.062Z,100488.31
2022-11-14T20:12:55.189Z,100492.06
2022-11-14T20:15:26.915Z,100490.78
2022-11-14T20:17:56.619Z,100492.28
2022-11-14T20:20:26.263Z,100492.81
2022-11-14T20:22:56.099Z,100495.72
2022-11-14T20:25:25.810Z,100492.13
2022-11-14T20:27:55.556Z,100493.41
2022-11-14T20:30:26.590Z,100486.84
2022-11-14T20:32:56.298Z,100491.59
2022-11-14T20:35:26.149Z,100489.22
2022-11-14T20:37:58.324Z,100488.28
2022-11-14T20:40:31.640Z,100494.16
2022-11-14T20:43:01.683Z,100488.97
2022-11-14T20:45:32.933Z,100496.22
2022-11-14T20:48:02.532Z,100493.03
2022-11-14T20:50:32.417Z,100484.72
2022-11-14T20:53:02.320Z,100488.63
2022-11-14T20:55:32.026Z,100486.69
2022-11-14T20:58:01.655Z,100484.72
2022-11-14T21:00:32.687Z,100482.31
2022-11-14T21:03:02.512Z,100482.19
2022-11-14T21:05:32.324Z,100472.50
2022-11-14T21:08:02.042Z,100471.59
2022-11-14T21:10:46.726Z,100476.81
2022-11-14T21:13:35.222Z,100469.09
2022-11-14T21:16:07.850Z,100473.47
2022-11-14T21:18:38.472Z,100476.97
2022-11-14T21:21:08.834Z,100465.84
2022-11-14T21:23:38.824Z,100468.41
2022-11-14T21:26:09.464Z,100461.75
2022-11-14T21:28:40.543Z,100463.56
2022-11-14T21:31:20.025Z,100466.06
2022-11-14T21:33:50.230Z,100464.56
2022-11-14T21:36:43.966Z,100466.63
2022-11-14T21:39:14.617Z,100465.53
2022-11-14T21:41:45.057Z,100469.34
2022-11-14T21:44:16.545Z,100471.13
2022-11-14T21:46:48.820Z,100470.53
2022-11-14T21:49:18.688Z,100464.16
2022-11-14T21:51:48.716Z,100459.84
2022-11-14T21:54:18.234Z,100464.53
2022-11-14T21:56:47.881Z,100461.25
2022-11-14T21:59:21.299Z,100457.63
2022-11-14T22:02:09.625Z,100453.75
2022-11-14T22:04:39.216Z,100459.22
2022-11-14T22:07:09.374Z,100451.59
2022-11-14T22:09:44.980Z,100451.28
2022-11-14T22:12:15.583Z,100447.03
2022-11-14T22:14:45.996Z,100450.06
2022-11-14T22:17:17.556Z,100444.16
2022-11-14T22:19:47.298Z,100439.94
2022-11-14T22:22:16.823Z,100436.06
2022-11-14T22:24:46.804Z,100436.59
2022-11-14T22:27:16.424Z,100430.31
2022-11-14T22:29:45.897Z,100429.22
2022-11-14T22:32:15.376Z,100430.63
2022-11-14T22:34:46.280Z,100425.94
2022-11-14T22:37:15.761Z,100423.53
2022-11-14T22:39:45.291Z,100427.34
2022-11-14T22:42:14.796Z,100417.91
2022-11-14T22:44:44.423Z,100413.91
2022-11-14T22:47:13.930Z,100415.53
2022-11-14T22:49:43.493Z,100405.81
2022-11-14T22:52:14.373Z,100408.91
2022-11-14T22:54:43.930Z,100410.47
2022-11-14T22:57:13.444Z,100414.19
2022-11-14T22:59:42.977Z,100411.09
2022-11-14T23:02:12.511Z,100413.75
2022-11-14T23:04:42.025Z,100411.31
2022-11-14T23:07:11.567Z,100410.06
2022-11-14T23:09:43.735Z,100410.78
2022-11-14T23:12:13.819Z,100407.91
2022-11-14T23:14:43.855Z,100415.06
2022-11-14T23:17:13.798Z,100404.84
2022-11-14T23:19:43.252Z,100404.69
2022-11-14T23:22:12.722Z,100407.66
2022-11-14T23:24:43.639Z,100398.56
2022-11-14T23:27:13.180Z,100393.59
2022-11-14T23:29:42.690Z,100398.56
2022-11-14T23:32:12.165Z,100398.66
2022-11-14T23:34:41.744Z,100399.47
2022-11-14T23:37:11.280Z,100398.31
2022-11-14T23:39:40.933Z,100403.66
2022-11-14T23:42:11.900Z,100405.66
2022-11-14T23:44:41.426Z,100400.25
2022-11-14T23:47:11.100Z,100406.63
2022-11-14T23:49:40.667Z,100395.66
2022-11-14T23:52:10.182Z,100394.16
2022-11-14T23:54:39.813Z,100397.16
2022-11-14T23:57:09.340Z,100402.25
2022-11-14T23:59:40.199Z,100396.75
